Jackson, Mississippi
Current Conditions -  °F | °C
As of 2:16 AM on Monday 22 Dec 2014 (Local Time) from KHKS Reporting Station
Haze Haze  
Wind Chill: 51°   Ceiling: 500
Heat Index: 51°   Visibility: 6mi
Dew Point: 49°   Wind: 8mph
Humidity: 92%   Direction: 140°SE
Pressure: 29.9"   Gusts: NA
Location:  32.3°N, 90.18°W
Report Text: KHKS 220816Z AUTO 14007KT 6SM BR OVC005 11/09 A2990 RMK AO2 T01060094
Loading
Personal Weather Stations






























Interactive Weather Map New forecast layout! Learn more

10-Day Weather Forecast

Advertisements
Track Severe Weather on mobile